Time;durP1;ratioP1;P1;durP2;ratioP2;P2;SDS_P1;SDS_P2;PMS_P1;PMS_P2;Temp;Humidity;BMP_temperature;BMP_pressure;BME280_temperature;BME280_humidity;BME280_pressure;Samples;Min_cycle;Max_cycle;Signal;HPM_P1;HPM_P2
2021/03/07 00:00:23;;;;;;;26.52;8.90;;;1.40;99.90;;;;;;4690400;30;20466;-80
2021/03/07 00:02:49;;;;;;;16.55;7.88;;;1.40;99.90;;;;;;4706596;30;20057;-80
2021/03/07 00:05:16;;;;;;;14.48;7.72;;;1.40;99.90;;;;;;4706117;30;20068;-80
2021/03/07 00:07:46;;;;;;;14.48;8.43;;;1.40;99.90;;;;;;4714941;30;20061;-80
2021/03/07 00:10:14;;;;;;;21.48;8.20;;;1.50;99.90;;;;;;4710776;30;20045;-80
2021/03/07 00:12:40;;;;;;;13.93;6.60;;;1.50;99.90;;;;;;4711420;30;20044;-80
2021/03/07 00:15:09;;;;;;;15.07;6.05;;;1.50;99.90;;;;;;4709470;30;20061;-80
2021/03/07 00:17:35;;;;;;;11.10;6.05;;;1.50;99.90;;;;;;4715409;30;20156;-80
2021/03/07 00:20:02;;;;;;;12.75;6.13;;;1.50;99.90;;;;;;4718283;30;20049;-80
2021/03/07 00:22:30;;;;;;;11.27;5.85;;;1.60;99.90;;;;;;4709829;30;20077;-80
2021/03/07 00:24:56;;;;;;;21.02;6.30;;;1.60;99.90;;;;;;4709310;30;20113;-81
2021/03/07 00:27:22;;;;;;;17.00;6.45;;;1.60;99.90;;;;;;4710418;30;20128;-80
2021/03/07 00:29:48;;;;;;;12.48;5.95;;;1.60;99.90;;;;;;4710220;30;20111;-80
2021/03/07 00:32:14;;;;;;;10.80;5.35;;;1.60;99.90;;;;;;4708428;30;20457;-80
2021/03/07 00:34:39;;;;;;;15.20;5.88;;;1.70;99.90;;;;;;4709315;30;20102;-80
2021/03/07 00:37:05;;;;;;;12.60;5.32;;;1.60;99.90;;;;;;4710146;30;20627;-80
2021/03/07 00:39:31;;;;;;;9.73;5.38;;;1.70;99.90;;;;;;4718925;30;20049;-79
2021/03/07 00:41:58;;;;;;;16.25;5.43;;;1.70;99.90;;;;;;4709985;30;20784;-81
2021/03/07 00:44:24;;;;;;;10.18;4.45;;;1.70;99.90;;;;;;4677575;30;20053;-79
2021/03/07 00:46:51;;;;;;;8.40;4.40;;;1.70;99.90;;;;;;4716134;30;20057;-81
2021/03/07 00:49:28;;;;;;;10.13;4.40;;;1.70;99.90;;;;;;4692340;30;20055;-81
2021/03/07 00:51:54;;;;;;;12.75;4.57;;;1.70;99.90;;;;;;4715522;30;20060;-81
2021/03/07 00:54:20;;;;;;;9.05;3.83;;;1.80;99.90;;;;;;4703435;30;20048;-79
2021/03/07 00:56:46;;;;;;;9.38;3.88;;;1.80;99.90;;;;;;4713699;30;20056;-81
2021/03/07 00:59:12;;;;;;;10.98;3.85;;;1.90;99.90;;;;;;4706958;30;20186;-80
2021/03/07 01:01:38;;;;;;;7.50;3.72;;;1.90;99.90;;;;;;4705106;30;20080;-80
2021/03/07 01:04:04;;;;;;;14.65;3.70;;;1.80;99.90;;;;;;4707599;30;20045;-81
2021/03/07 01:06:30;;;;;;;8.45;3.60;;;1.90;99.90;;;;;;4693653;30;21027;-80
2021/03/07 01:08:57;;;;;;;5.82;3.60;;;1.90;99.90;;;;;;4706692;30;20052;-81
2021/03/07 01:11:24;;;;;;;7.72;3.65;;;1.90;99.90;;;;;;4709581;30;20068;-81
2021/03/07 01:13:49;;;;;;;10.52;3.90;;;1.90;99.90;;;;;;4712377;30;20416;-81
2021/03/07 01:16:16;;;;;;;6.35;3.35;;;2.00;99.90;;;;;;4724947;30;20081;-81
2021/03/07 01:18:42;;;;;;;8.43;3.47;;;2.00;99.90;;;;;;4719001;30;20146;-81
2021/03/07 01:21:07;;;;;;;6.47;3.60;;;2.00;99.90;;;;;;4705645;30;20076;-81
2021/03/07 01:23:34;;;;;;;10.73;3.75;;;2.00;99.90;;;;;;4721816;30;20045;-81
2021/03/07 01:26:00;;;;;;;7.43;3.35;;;2.00;99.90;;;;;;4707557;30;20134;-81
2021/03/07 01:28:27;;;;;;;8.85;4.07;;;2.10;99.90;;;;;;4710656;30;20868;-81
2021/03/07 01:30:53;;;;;;;11.57;3.20;;;2.10;99.90;;;;;;4703201;30;20434;-81
2021/03/07 01:33:19;;;;;;;11.20;3.63;;;2.10;99.90;;;;;;4706220;30;20045;-81
2021/03/07 01:35:45;;;;;;;8.15;3.55;;;2.10;99.90;;;;;;4706206;30;20036;-81
2021/03/07 01:38:10;;;;;;;7.00;3.78;;;2.00;99.90;;;;;;4703365;30;20048;-81
2021/03/07 01:40:52;;;;;;;9.32;3.38;;;2.10;99.90;;;;;;4706406;30;20052;-81
2021/03/07 01:43:20;;;;;;;5.93;2.55;;;2.10;99.90;;;;;;4704931;30;20389;-81
2021/03/07 01:45:47;;;;;;;6.18;3.08;;;2.20;99.90;;;;;;4704281;30;20072;-81
2021/03/07 01:48:14;;;;;;;7.80;2.60;;;2.30;99.90;;;;;;4709530;30;20110;-81
2021/03/07 01:50:48;;;;;;;5.35;2.80;;;2.10;99.90;;;;;;4692868;30;20056;-81
2021/03/07 01:53:15;;;;;;;6.57;3.25;;;2.10;99.90;;;;;;4708778;30;20045;-81
2021/03/07 01:55:41;;;;;;;8.63;3.53;;;2.00;99.90;;;;;;4704649;30;20049;-81
2021/03/07 01:58:11;;;;;;;7.25;3.10;;;2.00;99.90;;;;;;4713278;30;22287;-81
2021/03/07 02:00:37;;;;;;;12.93;3.10;;;2.00;99.90;;;;;;4695867;30;20068;-81
2021/03/07 02:03:03;;;;;;;11.35;2.92;;;2.00;99.90;;;;;;4712279;30;20052;-81
2021/03/07 02:05:30;;;;;;;8.57;3.65;;;2.10;99.90;;;;;;4724148;30;20056;-81
2021/03/07 02:07:56;;;;;;;5.75;3.10;;;2.10;99.90;;;;;;4693018;30;20052;-82
2021/03/07 02:10:29;;;;;;;8.95;3.35;;;2.10;99.90;;;;;;4709193;30;20060;-81
2021/03/07 02:13:00;;;;;;;10.10;3.63;;;2.00;99.90;;;;;;4706602;30;20040;-82
2021/03/07 02:15:29;;;;;;;7.45;3.72;;;2.10;99.90;;;;;;4692898;30;20414;-81
2021/03/07 02:17:56;;;;;;;9.25;3.70;;;2.10;99.90;;;;;;4713377;30;20068;-82
2021/03/07 02:20:26;;;;;;;9.77;4.07;;;2.40;99.90;;;;;;4715978;30;20124;-81
2021/03/07 02:23:08;;;;;;;10.25;4.10;;;2.00;99.90;;;;;;4714553;30;20495;-82
2021/03/07 02:25:35;;;;;;;8.95;4.00;;;2.00;99.90;;;;;;4716225;30;20076;-81
2021/03/07 02:28:04;;;;;;;14.15;4.40;;;2.00;99.90;;;;;;4708313;30;20061;-81
2021/03/07 02:30:30;;;;;;;7.78;3.90;;;2.00;99.90;;;;;;4717244;30;20072;-79
2021/03/07 02:33:24;;;;;;;10.63;4.00;;;1.90;99.90;;;;;;4697341;30;20076;-81
2021/03/07 02:36:09;;;;;;;8.13;3.73;;;1.90;99.90;;;;;;4721392;30;20063;-81
2021/03/07 02:38:38;;;;;;;6.10;3.65;;;1.90;99.90;;;;;;4706462;30;20819;-81
2021/03/07 02:41:07;;;;;;;9.40;3.75;;;1.90;99.90;;;;;;4710612;30;20517;-81
2021/03/07 02:43:38;;;;;;;7.30;3.83;;;1.90;99.90;;;;;;4710324;30;20045;-78
2021/03/07 02:46:05;;;;;;;7.43;3.92;;;1.90;99.90;;;;;;4711851;30;20045;-78
2021/03/07 02:48:32;;;;;;;7.78;3.72;;;1.90;99.90;;;;;;4705791;30;20061;-79
2021/03/07 02:51:01;;;;;;;10.00;3.95;;;1.90;99.90;;;;;;4711211;30;20431;-79
2021/03/07 02:53:29;;;;;;;10.93;4.28;;;1.90;99.90;;;;;;4710059;30;20549;-78
2021/03/07 02:56:02;;;;;;;7.53;4.20;;;1.90;99.90;;;;;;4712233;30;20052;-79
2021/03/07 02:58:31;;;;;;;9.43;3.92;;;1.80;99.90;;;;;;4709177;30;20049;-79
2021/03/07 03:00:59;;;;;;;7.75;3.90;;;1.90;99.90;;;;;;4715303;30;20838;-80
2021/03/07 03:03:41;;;;;;;8.05;3.75;;;1.90;99.90;;;;;;4711047;30;20479;-79
2021/03/07 03:06:09;;;;;;;9.23;3.60;;;1.90;99.90;;;;;;4720737;30;20187;-79
2021/03/07 03:08:36;;;;;;;5.03;3.33;;;1.90;99.90;;;;;;4711128;30;20053;-78
2021/03/07 03:11:03;;;;;;;5.35;3.30;;;1.90;99.90;;;;;;4712869;30;20418;-81
2021/03/07 03:13:33;;;;;;;7.25;3.45;;;1.90;99.90;;;;;;4709588;30;20049;-79
2021/03/07 03:15:59;;;;;;;5.90;3.17;;;2.00;99.90;;;;;;4712150;30;20685;-79
2021/03/07 03:18:29;;;;;;;7.82;3.20;;;1.90;99.90;;;;;;4706886;30;20061;-79
2021/03/07 03:20:58;;;;;;;8.65;3.00;;;1.90;99.90;;;;;;4716098;30;20041;-80
2021/03/07 03:23:24;;;;;;;5.45;2.65;;;1.80;99.90;;;;;;4716613;30;20045;-79
2021/03/07 03:25:50;;;;;;;7.03;3.35;;;1.80;99.90;;;;;;4718586;30;20060;-79
2021/03/07 03:28:17;;;;;;;7.82;2.85;;;1.90;99.90;;;;;;4710913;30;20064;-81
2021/03/07 03:30:43;;;;;;;4.63;2.70;;;1.90;99.90;;;;;;4716015;30;20553;-79
2021/03/07 03:33:09;;;;;;;5.60;3.05;;;1.90;99.90;;;;;;4710991;30;20060;-79
2021/03/07 03:35:35;;;;;;;5.50;2.80;;;1.90;99.90;;;;;;4713317;30;20048;-80
2021/03/07 03:38:00;;;;;;;6.68;2.90;;;1.90;99.90;;;;;;4700799;30;20069;-80
2021/03/07 03:40:28;;;;;;;4.85;2.50;;;1.90;99.90;;;;;;4690063;30;20056;-78
2021/03/07 03:42:58;;;;;;;4.88;2.78;;;1.90;99.90;;;;;;4708766;30;20473;-81
2021/03/07 03:45:24;;;;;;;5.53;2.88;;;2.00;99.90;;;;;;4710677;30;20142;-79
2021/03/07 03:47:55;;;;;;;4.35;2.38;;;2.00;99.90;;;;;;4723717;30;20080;-79
2021/03/07 03:50:23;;;;;;;5.78;2.60;;;2.00;99.90;;;;;;4708273;30;20041;-79
2021/03/07 03:52:51;;;;;;;9.70;2.60;;;2.00;99.90;;;;;;4710981;30;20053;-79
2021/03/07 03:55:24;;;;;;;4.55;2.35;;;2.00;99.90;;;;;;4710569;30;20056;-79
2021/03/07 03:58:04;;;;;;;7.47;2.70;;;2.00;99.90;;;;;;4712816;30;20135;-79
2021/03/07 04:00:33;;;;;;;5.20;2.03;;;2.00;99.90;;;;;;4710596;30;20352;-79
2021/03/07 04:03:00;;;;;;;5.18;2.28;;;2.00;99.90;;;;;;4720793;30;20069;-79
2021/03/07 04:05:28;;;;;;;4.93;2.35;;;2.00;99.90;;;;;;4709295;30;20406;-78
2021/03/07 04:07:59;;;;;;;9.38;2.67;;;2.10;99.90;;;;;;4678220;30;20057;-80
2021/03/07 04:10:26;;;;;;;6.80;2.53;;;2.00;99.90;;;;;;4714700;30;20045;-79
2021/03/07 04:12:57;;;;;;;7.40;2.30;;;2.00;99.90;;;;;;4707869;30;20064;-79
2021/03/07 04:15:23;;;;;;;4.40;2.20;;;2.00;99.90;;;;;;4711197;30;20494;-79
2021/03/07 04:17:51;;;;;;;4.18;2.13;;;2.00;99.90;;;;;;4710657;30;20049;-79
2021/03/07 04:20:18;;;;;;;7.15;2.17;;;2.10;99.90;;;;;;4707389;30;20156;-80
2021/03/07 04:22:47;;;;;;;4.25;2.10;;;2.10;99.90;;;;;;4709491;30;20554;-80
2021/03/07 04:25:13;;;;;;;4.38;2.30;;;2.10;99.90;;;;;;4700660;30;20060;-79
2021/03/07 04:27:39;;;;;;;7.47;2.20;;;2.10;99.90;;;;;;4704708;30;20545;-79
2021/03/07 04:30:06;;;;;;;4.22;2.00;;;2.10;99.90;;;;;;4712296;30;20490;-79
2021/03/07 04:32:33;;;;;;;4.03;1.90;;;2.20;99.90;;;;;;4693149;30;20200;-80
2021/03/07 04:35:00;;;;;;;6.60;2.38;;;2.20;99.90;;;;;;4712846;30;20049;-80
2021/03/07 04:37:26;;;;;;;6.35;2.25;;;2.10;99.90;;;;;;4715562;30;20148;-80
2021/03/07 04:39:53;;;;;;;5.65;2.15;;;2.10;99.90;;;;;;4706522;30;20057;-80
2021/03/07 04:42:19;;;;;;;3.45;1.85;;;2.20;99.90;;;;;;4712428;30;20064;-80
2021/03/07 04:44:45;;;;;;;4.60;2.20;;;2.20;99.90;;;;;;4693626;30;20451;-79
2021/03/07 04:47:11;;;;;;;3.13;2.00;;;2.20;99.90;;;;;;4709763;30;20049;-79
2021/03/07 04:49:37;;;;;;;4.43;2.17;;;2.20;99.90;;;;;;4694098;30;20061;-80
2021/03/07 04:52:03;;;;;;;4.50;2.30;;;2.20;99.90;;;;;;4710169;30;20103;-80
2021/03/07 04:54:29;;;;;;;6.63;2.03;;;2.20;99.90;;;;;;4715216;30;20064;-79
2021/03/07 04:56:55;;;;;;;5.10;2.53;;;2.20;99.90;;;;;;4730057;30;20111;-81
2021/03/07 04:59:21;;;;;;;7.60;2.33;;;2.20;99.90;;;;;;4709990;30;20049;-80
2021/03/07 05:01:47;;;;;;;6.70;2.40;;;2.20;99.90;;;;;;4708158;30;20608;-81
2021/03/07 05:04:12;;;;;;;3.95;2.10;;;2.30;99.90;;;;;;4695540;30;20496;-80
2021/03/07 05:06:40;;;;;;;5.88;2.17;;;2.30;99.90;;;;;;4713903;30;20496;-80
2021/03/07 05:09:07;;;;;;;5.93;2.40;;;2.20;99.90;;;;;;4717083;30;20049;-80
2021/03/07 05:11:34;;;;;;;7.15;2.60;;;2.20;99.90;;;;;;4693285;30;20049;-80
2021/03/07 05:14:00;;;;;;;6.50;2.42;;;2.40;99.90;;;;;;4704001;30;20494;-80
2021/03/07 05:16:27;;;;;;;3.35;2.20;;;2.30;99.90;;;;;;4703680;30;20414;-80
2021/03/07 05:18:54;;;;;;;7.15;2.15;;;2.30;99.90;;;;;;4709074;30;20049;-81
2021/03/07 05:21:20;;;;;;;5.45;2.35;;;2.30;99.90;;;;;;4715181;30;20057;-80
2021/03/07 05:23:47;;;;;;;5.32;2.33;;;2.30;99.90;;;;;;4711668;30;20119;-81
2021/03/07 05:26:13;;;;;;;6.85;2.38;;;2.30;99.90;;;;;;4713495;30;20041;-80
2021/03/07 05:28:38;;;;;;;5.75;2.47;;;2.40;99.90;;;;;;4709294;30;20067;-81
2021/03/07 05:31:04;;;;;;;5.05;2.40;;;2.30;99.90;;;;;;4713021;30;20478;-80
2021/03/07 05:33:31;;;;;;;5.72;2.47;;;2.40;99.90;;;;;;4709884;30;20049;-80
2021/03/07 05:35:56;;;;;;;4.97;2.35;;;2.30;99.90;;;;;;4711388;30;20056;-81
2021/03/07 05:38:22;;;;;;;6.45;2.47;;;2.30;99.90;;;;;;4692229;30;20782;-80
2021/03/07 05:40:49;;;;;;;4.70;2.45;;;2.30;99.90;;;;;;4712964;30;20045;-80
2021/03/07 05:43:15;;;;;;;5.28;2.53;;;2.30;99.90;;;;;;4701978;30;20132;-80
2021/03/07 05:45:40;;;;;;;5.65;2.42;;;2.30;99.90;;;;;;4707905;30;20506;-79
2021/03/07 05:48:06;;;;;;;6.53;2.50;;;2.40;99.90;;;;;;4713955;30;20180;-80
2021/03/07 05:50:33;;;;;;;5.72;2.80;;;2.40;99.90;;;;;;4711300;30;20081;-79
2021/03/07 05:52:59;;;;;;;5.53;2.55;;;2.40;99.90;;;;;;4706485;30;20127;-80
2021/03/07 05:55:27;;;;;;;3.13;2.20;;;2.30;99.90;;;;;;4715128;30;20040;-80
2021/03/07 05:57:57;;;;;;;4.35;2.22;;;2.30;99.90;;;;;;4691154;30;20415;-80
2021/03/07 06:00:23;;;;;;;5.72;2.55;;;2.40;99.90;;;;;;4706838;30;20137;-79
2021/03/07 06:02:49;;;;;;;3.72;2.40;;;2.40;99.90;;;;;;4710689;30;20095;-80
2021/03/07 06:05:16;;;;;;;5.43;2.67;;;2.40;99.90;;;;;;4701259;30;20056;-79
2021/03/07 06:07:43;;;;;;;5.30;2.35;;;2.40;99.90;;;;;;4705165;30;20061;-80
2021/03/07 06:10:15;;;;;;;6.63;2.60;;;2.40;99.90;;;;;;4714191;30;20421;-79
2021/03/07 06:12:42;;;;;;;6.95;2.78;;;2.40;99.90;;;;;;4714644;30;20045;-79
2021/03/07 06:15:11;;;;;;;10.52;2.95;;;2.50;99.90;;;;;;4711954;30;20079;-79
2021/03/07 06:17:45;;;;;;;4.20;2.90;;;2.50;99.90;;;;;;4713288;30;20045;-79
2021/03/07 06:20:13;;;;;;;8.68;2.63;;;2.50;99.90;;;;;;4704322;30;20060;-78
2021/03/07 06:22:50;;;;;;;9.05;2.83;;;2.50;99.90;;;;;;4704321;30;20072;-79
2021/03/07 06:25:17;;;;;;;7.07;2.72;;;2.50;99.90;;;;;;4721202;30;20052;-80
2021/03/07 06:27:43;;;;;;;5.03;3.10;;;2.50;99.90;;;;;;4707921;30;20454;-79
2021/03/07 06:30:13;;;;;;;4.97;2.90;;;2.50;99.90;;;;;;4705996;30;20045;-79
2021/03/07 06:32:53;;;;;;;4.88;3.20;;;2.50;99.90;;;;;;4711401;30;20045;-79
2021/03/07 06:35:31;;;;;;;5.97;3.40;;;2.60;99.90;;;;;;4723397;30;20056;-79
2021/03/07 06:37:56;;;;;;;6.50;3.33;;;2.60;99.90;;;;;;4707640;30;20593;-80
2021/03/07 06:40:41;;;;;;;9.93;3.45;;;2.50;99.90;;;;;;4708138;30;20139;-79
2021/03/07 06:43:24;;;;;;;6.00;3.78;;;2.50;99.90;;;;;;4708212;30;20051;-79
2021/03/07 06:45:50;;;;;;;7.38;3.65;;;2.50;99.90;;;;;;4718897;30;20159;-79
2021/03/07 06:48:16;;;;;;;8.27;4.10;;;2.60;99.90;;;;;;4705118;30;20144;-78
2021/03/07 06:50:57;;;;;;;5.53;3.80;;;2.60;99.90;;;;;;4722853;30;20045;-78
2021/03/07 06:53:41;;;;;;;9.27;4.07;;;2.60;99.90;;;;;;4717406;30;20502;-78
2021/03/07 06:56:07;;;;;;;7.78;4.40;;;2.60;99.90;;;;;;4713208;30;20056;-78
2021/03/07 06:58:33;;;;;;;6.30;4.20;;;2.90;99.90;;;;;;4710993;30;20060;-79
2021/03/07 07:00:59;;;;;;;10.40;3.83;;;2.80;99.90;;;;;;4708875;30;20049;-80
2021/03/07 07:03:26;;;;;;;5.90;3.70;;;2.80;99.90;;;;;;4721126;30;20525;-79
2021/03/07 07:05:54;;;;;;;8.65;3.83;;;2.80;99.90;;;;;;4718212;30;20075;-80
2021/03/07 07:08:43;;;;;;;4.47;3.55;;;2.70;99.90;;;;;;4707439;30;20056;-80
2021/03/07 07:11:09;;;;;;;8.05;3.65;;;2.70;99.90;;;;;;4709710;30;20079;-79
2021/03/07 07:13:51;;;;;;;5.82;3.42;;;2.70;99.90;;;;;;4721451;30;20076;-79
2021/03/07 07:16:17;;;;;;;13.48;3.90;;;2.70;99.90;;;;;;4715350;30;20464;-80
2021/03/07 07:18:44;;;;;;;6.45;3.63;;;2.70;99.90;;;;;;4680850;30;20068;-79
2021/03/07 07:21:16;;;;;;;8.02;3.88;;;2.70;99.90;;;;;;4711624;30;20161;-79
2021/03/07 07:23:42;;;;;;;7.55;4.10;;;2.70;99.90;;;;;;4715606;30;20060;-79
2021/03/07 07:26:09;;;;;;;8.18;4.40;;;2.70;99.90;;;;;;4720394;30;20682;-79
2021/03/07 07:28:35;;;;;;;8.32;4.20;;;2.80;99.90;;;;;;4698797;30;20057;-80
2021/03/07 07:31:11;;;;;;;6.40;4.15;;;2.80;99.90;;;;;;4711743;30;20041;-79
2021/03/07 07:34:08;;;;;;;8.90;4.40;;;2.80;99.90;;;;;;4729679;30;20113;-79
2021/03/07 07:36:48;;;;;;;8.20;4.22;;;2.80;99.90;;;;;;4715753;30;20056;-80
2021/03/07 07:39:16;;;;;;;7.97;4.63;;;2.80;99.90;;;;;;4713763;30;20049;-80
2021/03/07 07:41:43;;;;;;;9.98;5.00;;;2.80;99.90;;;;;;4718190;30;20049;-79
2021/03/07 07:44:11;;;;;;;11.80;4.65;;;2.80;99.90;;;;;;4707385;30;20082;-79
2021/03/07 07:47:04;;;;;;;10.88;4.95;;;2.90;99.90;;;;;;4714071;30;20081;-79
2021/03/07 07:49:48;;;;;;;11.85;4.85;;;2.90;99.90;;;;;;4715061;30;20483;-79
2021/03/07 07:52:26;;;;;;;7.70;4.57;;;2.90;99.90;;;;;;4710436;30;20041;-79
2021/03/07 07:54:58;;;;;;;7.78;4.65;;;2.90;99.90;;;;;;4716277;30;20045;-80
2021/03/07 07:57:32;;;;;;;9.20;4.80;;;3.00;99.90;;;;;;4717316;30;20041;-80
2021/03/07 08:00:22;;;;;;;13.50;5.28;;;3.00;99.90;;;;;;4729111;30;20164;-78
2021/03/07 08:02:52;;;;;;;10.70;4.97;;;3.00;99.90;;;;;;4713253;30;20097;-77
2021/03/07 08:05:21;;;;;;;7.38;4.75;;;3.00;99.90;;;;;;4711761;30;20076;-76
2021/03/07 08:08:09;;;;;;;10.38;5.53;;;3.00;99.90;;;;;;4711919;30;20099;-78
2021/03/07 08:10:50;;;;;;;11.70;5.57;;;3.10;99.90;;;;;;4717019;30;20053;-79
2021/03/07 08:13:15;;;;;;;8.23;5.57;;;3.10;99.90;;;;;;4709408;30;20040;-78
2021/03/07 08:15:48;;;;;;;9.10;5.78;;;3.20;99.90;;;;;;4711001;30;20041;-79
2021/03/07 08:18:37;;;;;;;13.35;6.10;;;3.10;99.90;;;;;;4713109;30;20084;-78
2021/03/07 08:21:04;;;;;;;10.95;6.05;;;3.10;99.90;;;;;;4695164;30;20057;-79
2021/03/07 08:23:30;;;;;;;10.60;6.38;;;3.10;99.90;;;;;;4707782;30;20599;-80
2021/03/07 08:25:57;;;;;;;10.95;6.13;;;3.20;99.90;;;;;;4702162;30;20045;-81
2021/03/07 08:28:29;;;;;;;11.65;5.85;;;3.20;99.90;;;;;;4705298;30;20061;-78
2021/03/07 08:31:00;;;;;;;14.85;5.90;;;3.20;99.90;;;;;;4717931;30;20202;-78
2021/03/07 08:33:31;;;;;;;12.27;6.13;;;3.20;99.90;;;;;;4713825;30;20045;-76
2021/03/07 08:36:17;;;;;;;9.55;6.80;;;3.30;99.90;;;;;;4713167;30;20037;-77
2021/03/07 08:38:49;;;;;;;;;;;3.20;99.90;;;;;;4714272;30;20061;-79
2021/03/07 08:41:19;;;;;;;10.43;6.30;;;3.20;99.90;;;;;;4714026;30;20491;-76
2021/03/07 08:43:48;;;;;;;11.80;6.75;;;3.30;99.90;;;;;;4707770;30;20045;-77
2021/03/07 08:46:25;;;;;;;13.18;7.05;;;3.30;99.90;;;;;;4715028;30;20092;-77
2021/03/07 08:49:28;;;;;;;12.48;6.85;;;3.30;99.90;;;;;;4712421;30;20061;-76
2021/03/07 08:52:03;;;;;;;16.35;7.25;;;3.40;99.90;;;;;;4699322;30;20131;-81
2021/03/07 08:54:31;;;;;;;12.82;7.38;;;3.40;99.90;;;;;;4689566;30;20102;-80
2021/03/07 08:57:02;;;;;;;13.43;7.60;;;3.40;99.90;;;;;;4685006;30;20049;-79
2021/03/07 08:59:28;;;;;;;10.88;7.57;;;3.50;99.90;;;;;;4696557;30;20069;-79
2021/03/07 09:01:55;;;;;;;12.80;7.80;;;3.50;99.90;;;;;;4690606;30;20178;-80
2021/03/07 09:04:21;;;;;;;14.13;7.95;;;3.50;99.90;;;;;;4708529;30;20080;-76
2021/03/07 09:06:47;;;;;;;16.10;7.88;;;3.60;99.90;;;;;;4709163;30;20201;-79
2021/03/07 09:09:21;;;;;;;12.43;8.52;;;3.70;99.90;;;;;;4705035;30;20099;-78
2021/03/07 09:11:52;;;;;;;11.98;8.15;;;3.70;99.90;;;;;;4711817;30;20093;-78
2021/03/07 09:14:25;;;;;;;14.82;7.68;;;3.70;99.90;;;;;;4706561;30;20057;-78
2021/03/07 09:16:51;;;;;;;16.05;7.90;;;3.80;99.90;;;;;;4703898;30;20053;-76
2021/03/07 09:19:25;;;;;;;14.50;9.02;;;3.80;99.90;;;;;;4703568;30;20068;-77
2021/03/07 09:22:22;;;;;;;14.85;8.60;;;3.90;99.90;;;;;;4713433;30;20487;-78
2021/03/07 09:24:55;;;;;;;13.38;8.48;;;4.00;99.90;;;;;;4712118;30;20057;-79
2021/03/07 09:27:23;;;;;;;13.40;8.57;;;4.00;99.90;;;;;;4706011;30;20418;-81
2021/03/07 09:30:04;;;;;;;14.43;7.93;;;4.10;99.90;;;;;;4707007;30;20041;-81
2021/03/07 09:32:31;;;;;;;14.88;8.52;;;4.20;99.90;;;;;;4713411;30;20358;-78
2021/03/07 09:34:58;;;;;;;20.52;8.35;;;4.30;99.90;;;;;;4707707;30;20136;-80
2021/03/07 09:37:26;;;;;;;19.20;9.35;;;4.40;99.90;;;;;;4703845;30;20073;-80
2021/03/07 09:39:53;;;;;;;14.90;8.60;;;4.40;99.90;;;;;;4709807;30;20048;-79
2021/03/07 09:42:19;;;;;;;12.35;8.02;;;4.50;99.90;;;;;;4705790;30;20822;-79
2021/03/07 09:44:46;;;;;;;14.30;8.30;;;4.50;99.90;;;;;;4706582;30;20085;-79
2021/03/07 09:47:14;;;;;;;16.38;8.75;;;4.60;99.90;;;;;;4706882;30;20053;-78
2021/03/07 09:49:40;;;;;;;14.23;8.27;;;4.60;99.90;;;;;;4709310;30;20458;-79
2021/03/07 09:52:08;;;;;;;13.23;8.65;;;4.70;99.50;;;;;;4704256;30;20406;-79
2021/03/07 09:54:34;;;;;;;14.80;8.32;;;4.70;99.70;;;;;;4691164;30;20752;-78
2021/03/07 09:56:59;;;;;;;12.85;7.50;;;4.80;99.70;;;;;;4709568;30;20095;-78
2021/03/07 09:59:34;;;;;;;13.15;8.07;;;4.70;99.70;;;;;;4714058;30;20107;-78
2021/03/07 10:02:00;;;;;;;;;;;4.80;99.50;;;;;;4706211;30;20104;-78
2021/03/07 10:04:32;;;;;;;19.23;8.40;;;4.70;99.50;;;;;;4693907;30;21468;-76
2021/03/07 10:07:01;;;;;;;15.73;8.55;;;4.70;99.80;;;;;;4706600;30;20067;-77
2021/03/07 10:09:27;;;;;;;13.40;8.25;;;4.80;98.80;;;;;;4712698;30;20067;-76
2021/03/07 10:12:01;;;;;;;14.40;8.38;;;5.00;99.20;;;;;;4704270;30;22383;-79
2021/03/07 10:14:31;;;;;;;13.45;8.18;;;4.90;99.60;;;;;;4707447;30;20061;-79
2021/03/07 10:16:59;;;;;;;14.75;9.27;;;5.00;98.70;;;;;;4711743;30;20148;-81
2021/03/07 10:19:36;;;;;;;15.18;8.57;;;5.10;99.10;;;;;;4707087;30;20112;-79
2021/03/07 10:22:05;;;;;;;13.57;8.93;;;5.10;98.80;;;;;;4711335;30;20171;-82
2021/03/07 10:24:32;;;;;;;13.50;8.52;;;5.10;98.90;;;;;;4714077;30;20741;-80
2021/03/07 10:27:04;;;;;;;14.93;8.65;;;5.30;99.10;;;;;;4710242;30;20190;-81
2021/03/07 10:29:36;;;;;;;11.18;7.72;;;5.30;99.20;;;;;;4720042;30;20065;-80
2021/03/07 10:32:09;;;;;;;13.10;9.32;;;5.30;98.50;;;;;;4711398;30;20052;-81
2021/03/07 10:34:40;;;;;;;11.77;8.07;;;5.40;98.80;;;;;;4712587;30;20045;-80
2021/03/07 10:37:07;;;;;;;15.43;9.13;;;5.30;98.10;;;;;;4716396;30;20041;-80
2021/03/07 10:39:33;;;;;;;13.00;9.13;;;5.50;98.40;;;;;;4710703;30;20418;-82
2021/03/07 10:42:11;;;;;;;12.40;6.85;;;5.60;98.80;;;;;;4710979;30;20576;-81
2021/03/07 10:44:40;;;;;;;11.70;6.68;;;5.50;97.90;;;;;;4715727;30;20053;-79
2021/03/07 10:47:16;;;;;;;12.50;8.82;;;5.50;97.60;;;;;;4722445;30;20426;-79
2021/03/07 10:49:46;;;;;;;16.63;9.20;;;5.50;97.50;;;;;;4713706;30;20091;-79
2021/03/07 10:52:12;;;;;;;14.70;8.63;;;5.60;97.80;;;;;;4713894;30;20475;-80
2021/03/07 10:54:42;;;;;;;14.02;8.30;;;5.60;97.90;;;;;;4719584;30;20068;-80
2021/03/07 10:57:11;;;;;;;14.77;8.40;;;5.80;97.60;;;;;;4719475;30;20054;-79
2021/03/07 10:59:38;;;;;;;12.45;9.05;;;5.80;97.20;;;;;;4707384;30;20064;-80
2021/03/07 11:02:09;;;;;;;11.98;7.57;;;5.80;97.50;;;;;;4715861;30;20041;-80
2021/03/07 11:04:35;;;;;;;12.52;8.07;;;5.80;97.80;;;;;;4730025;30;20831;-80
2021/03/07 11:07:02;;;;;;;12.52;8.93;;;5.80;96.80;;;;;;4717778;30;20079;-80
2021/03/07 11:09:28;;;;;;;12.77;8.07;;;5.80;96.60;;;;;;4697658;30;20151;-80
2021/03/07 11:11:53;;;;;;;10.55;8.25;;;6.00;96.80;;;;;;4692730;30;20747;-81
2021/03/07 11:14:19;;;;;;;14.43;8.75;;;5.90;97.10;;;;;;4714063;30;20453;-80
2021/03/07 11:16:45;;;;;;;11.40;8.30;;;6.00;97.20;;;;;;4713003;30;20468;-80
2021/03/07 11:19:11;;;;;;;12.57;8.30;;;6.00;97.40;;;;;;4707749;30;20426;-80
2021/03/07 11:21:37;;;;;;;12.05;8.70;;;6.10;98.00;;;;;;4713282;30;20128;-80
2021/03/07 11:24:04;;;;;;;15.30;9.38;;;6.10;97.40;;;;;;4712062;30;20051;-81
2021/03/07 11:26:29;;;;;;;15.45;8.93;;;6.10;97.10;;;;;;4690338;30;20141;-80
2021/03/07 11:28:56;;;;;;;13.20;9.40;;;6.00;97.00;;;;;;4712089;30;20148;-82
2021/03/07 11:31:23;;;;;;;16.90;10.00;;;6.00;97.20;;;;;;4708925;30;20435;-81
2021/03/07 11:33:48;;;;;;;16.33;9.00;;;6.00;97.40;;;;;;4718080;30;20103;-81
2021/03/07 11:36:14;;;;;;;19.77;10.43;;;5.90;97.40;;;;;;4711698;30;20670;-81
2021/03/07 11:38:40;;;;;;;14.30;9.82;;;5.90;97.30;;;;;;4712349;30;20756;-81
2021/03/07 11:41:06;;;;;;;12.43;8.73;;;5.90;97.40;;;;;;4697026;30;20064;-81
2021/03/07 11:43:32;;;;;;;16.98;10.05;;;5.90;97.10;;;;;;4707123;30;20060;-81
2021/03/07 11:45:58;;;;;;;14.45;8.23;;;5.90;97.50;;;;;;4714013;30;20041;-81
2021/03/07 11:48:24;;;;;;;14.77;9.30;;;5.90;97.80;;;;;;4718490;30;20045;-81
2021/03/07 11:50:50;;;;;;;15.65;9.65;;;5.90;97.80;;;;;;4710858;30;20069;-81
2021/03/07 11:53:15;;;;;;;22.65;11.18;;;6.00;97.80;;;;;;4717747;30;20677;-81
2021/03/07 11:55:41;;;;;;;19.35;12.35;;;5.90;98.30;;;;;;4719203;30;20045;-81
2021/03/07 11:58:07;;;;;;;20.35;13.27;;;5.80;97.50;;;;;;4719811;30;20049;-81
2021/03/07 12:00:32;;;;;;;21.85;12.65;;;5.80;97.50;;;;;;4697779;30;20075;-81
2021/03/07 12:02:59;;;;;;;21.67;13.02;;;5.80;97.50;;;;;;4714568;30;20384;-82
2021/03/07 12:05:25;;;;;;;22.98;14.80;;;5.80;97.30;;;;;;4697712;30;20091;-81
2021/03/07 12:07:51;;;;;;;24.35;15.18;;;6.00;97.40;;;;;;4700875;30;20569;-81
2021/03/07 12:10:19;;;;;;;24.33;14.50;;;5.80;97.20;;;;;;4709358;30;20203;-77
2021/03/07 12:12:44;;;;;;;27.30;16.48;;;5.90;97.40;;;;;;4714074;30;20048;-80
2021/03/07 12:15:11;;;;;;;25.02;16.58;;;5.90;98.00;;;;;;4684953;30;20050;-80
2021/03/07 12:17:38;;;;;;;26.38;15.30;;;5.90;98.10;;;;;;4706664;30;20052;-80
2021/03/07 12:20:06;;;;;;;22.63;15.05;;;5.80;97.90;;;;;;4714835;30;20064;-79
2021/03/07 12:22:32;;;;;;;26.90;15.80;;;5.90;97.80;;;;;;4708057;30;20052;-80
2021/03/07 12:24:58;;;;;;;26.98;16.73;;;5.80;98.10;;;;;;4712296;30;20048;-80
2021/03/07 12:27:24;;;;;;;27.15;16.20;;;5.90;98.60;;;;;;4722029;30;20046;-81
2021/03/07 12:29:50;;;;;;;29.13;16.38;;;5.90;98.50;;;;;;4709268;30;20084;-80
2021/03/07 12:32:17;;;;;;;28.02;19.08;;;5.80;98.90;;;;;;4707652;30;20221;-80
2021/03/07 12:34:43;;;;;;;29.27;15.95;;;5.80;99.00;;;;;;4716948;30;20064;-82
2021/03/07 12:37:09;;;;;;;35.45;18.05;;;5.80;98.90;;;;;;4715953;30;20045;-82
2021/03/07 12:39:35;;;;;;;27.73;16.40;;;5.80;98.90;;;;;;4716574;30;20123;-81
2021/03/07 12:42:01;;;;;;;26.50;16.10;;;5.80;99.10;;;;;;4719987;30;20048;-82
2021/03/07 12:44:26;;;;;;;33.90;19.00;;;5.90;98.60;;;;;;4711054;30;20712;-81
2021/03/07 12:46:53;;;;;;;29.98;17.10;;;5.80;98.80;;;;;;4708031;30;20096;-82
2021/03/07 12:49:19;;;;;;;35.30;20.85;;;5.70;99.10;;;;;;4711814;30;20130;-81
2021/03/07 12:51:45;;;;;;;28.67;17.88;;;5.70;99.50;;;;;;4711504;30;20633;-82
2021/03/07 12:54:11;;;;;;;27.98;18.10;;;5.80;99.70;;;;;;4709670;30;20095;-80
2021/03/07 12:56:38;;;;;;;33.22;20.83;;;5.80;99.70;;;;;;4704911;30;20045;-80
2021/03/07 12:59:05;;;;;;;29.60;17.02;;;6.00;99.90;;;;;;4708476;30;20049;-81